Time;durP1;ratioP1;P1;durP2;ratioP2;P2;SDS_P1;SDS_P2;PMS_P1;PMS_P2;Temp;Humidity;BMP_temperature;BMP_pressure;BME280_temperature;BME280_humidity;BME280_pressure;Samples;Min_cycle;Max_cycle;Signal;HPM_P1;HPM_P2
2022/03/14 00:02:07;;;;;;;26.52;10.10;;;;;;;4.69;35.01;100328.09;5068825;28;20082;-68
2022/03/14 00:04:37;;;;;;;35.75;13.50;;;;;;;4.73;34.80;100337.44;5068928;28;20037;-68
2022/03/14 00:07:04;;;;;;;24.50;10.35;;;;;;;4.69;34.65;100333.28;5068985;28;20030;-68
2022/03/14 00:09:30;;;;;;;58.28;17.23;;;;;;;4.69;34.86;100328.94;5068154;28;20430;-70
2022/03/14 00:11:56;;;;;;;25.35;10.25;;;;;;;4.64;34.96;100330.91;5074168;28;20025;-67
2022/03/14 00:14:24;;;;;;;32.80;10.02;;;;;;;4.60;34.68;100334.53;5068380;28;20039;-67
2022/03/14 00:16:50;;;;;;;29.88;10.88;;;;;;;4.55;34.86;100334.69;5069048;28;20033;-68
2022/03/14 00:19:15;;;;;;;29.05;10.70;;;;;;;4.54;35.29;100333.00;5068885;28;20414;-68
2022/03/14 00:21:41;;;;;;;26.90;10.85;;;;;;;4.52;35.01;100332.22;5069630;28;20028;-66
2022/03/14 00:24:09;;;;;;;27.92;10.68;;;;;;;4.51;35.00;100335.72;5069061;28;20052;-67
2022/03/14 00:26:35;;;;;;;25.70;11.00;;;;;;;4.53;34.82;100343.47;5072205;28;20024;-69
2022/03/14 00:29:00;;;;;;;24.63;10.02;;;;;;;4.54;34.52;100339.97;5071805;28;20028;-67
2022/03/14 00:31:26;;;;;;;24.92;9.35;;;;;;;4.55;34.42;100347.69;5068282;28;20017;-66
2022/03/14 00:33:51;;;;;;;26.35;10.40;;;;;;;4.51;34.43;100353.91;5067311;28;20635;-68
2022/03/14 00:36:17;;;;;;;24.73;10.27;;;;;;;4.49;34.52;100347.13;5067411;28;20413;-70
2022/03/14 00:38:42;;;;;;;25.55;10.30;;;;;;;4.48;34.21;100355.78;5068442;28;20036;-68
2022/03/14 00:41:08;;;;;;;26.42;10.20;;;;;;;4.46;34.70;100355.03;5068491;28;20046;-68
2022/03/14 00:43:35;;;;;;;28.00;10.48;;;;;;;4.42;34.52;100356.06;5068351;28;20052;-69
2022/03/14 00:46:00;;;;;;;25.77;10.35;;;;;;;4.41;34.49;100355.19;5069104;28;20025;-68
2022/03/14 00:48:26;;;;;;;20.38;9.57;;;;;;;4.38;34.78;100347.53;5068698;28;20029;-67
2022/03/14 00:50:52;;;;;;;26.25;10.23;;;;;;;4.32;34.79;100345.19;5068372;28;20548;-67
2022/03/14 00:53:17;;;;;;;31.02;10.45;;;;;;;4.30;34.73;100355.66;5067829;28;20039;-69
2022/03/14 00:55:43;;;;;;;22.92;9.85;;;;;;;4.27;34.71;100347.13;5071730;28;20032;-69
2022/03/14 00:58:08;;;;;;;24.02;10.40;;;;;;;4.26;34.58;100341.06;5072591;28;20482;-68
2022/03/14 01:00:34;;;;;;;23.65;9.38;;;;;;;4.30;34.59;100337.47;5072284;28;20110;-70
2022/03/14 01:03:00;;;;;;;25.10;10.05;;;;;;;4.30;35.08;100342.66;5071707;28;20036;-69
2022/03/14 01:05:26;;;;;;;28.85;10.75;;;;;;;4.24;34.61;100340.31;5071304;28;20028;-65
2022/03/14 01:07:52;;;;;;;26.27;11.45;;;;;;;4.26;34.81;100332.44;5070461;28;20135;-69
2022/03/14 01:10:17;;;;;;;21.77;9.15;;;;;;;4.23;34.81;100330.84;5071546;28;20044;-68
2022/03/14 01:12:43;;;;;;;23.65;8.93;;;;;;;4.18;34.74;100337.09;5072001;28;20031;-70
2022/03/14 01:15:09;;;;;;;20.25;8.68;;;;;;;4.09;35.15;100330.53;5071117;28;20055;-70
2022/03/14 01:17:35;;;;;;;28.52;9.52;;;;;;;3.94;35.72;100326.78;5071134;28;20137;-65
2022/03/14 01:20:00;;;;;;;22.45;9.60;;;;;;;3.88;35.05;100329.63;5070993;28;20021;-67
2022/03/14 01:22:25;;;;;;;26.58;10.05;;;;;;;3.94;34.79;100323.34;5071524;28;20494;-68
2022/03/14 01:24:51;;;;;;;19.75;9.38;;;;;;;3.85;35.88;100327.13;5071679;28;20021;-66
2022/03/14 01:27:16;;;;;;;20.77;9.27;;;;;;;3.73;35.64;100328.44;5071378;28;20036;-68
2022/03/14 01:29:42;;;;;;;36.72;9.40;;;;;;;3.65;35.96;100325.31;5071469;28;20033;-68
2022/03/14 01:32:10;;;;;;;23.45;9.40;;;;;;;3.79;35.86;100329.97;5071128;28;20032;-69
2022/03/14 01:34:35;;;;;;;27.95;9.90;;;;;;;3.80;35.22;100337.69;5065375;28;20036;-69
2022/03/14 01:37:01;;;;;;;28.38;9.68;;;;;;;3.78;35.36;100344.69;5071374;28;20066;-68
2022/03/14 01:39:26;;;;;;;26.55;9.90;;;;;;;3.75;35.44;100344.81;5071089;28;20040;-70
2022/03/14 01:41:52;;;;;;;26.60;9.90;;;;;;;3.70;35.80;100346.72;5071270;28;20413;-69
2022/03/14 01:44:17;;;;;;;22.35;9.25;;;;;;;3.54;36.39;100348.19;5070996;28;20462;-69
2022/03/14 01:46:44;;;;;;;27.90;9.32;;;;;;;3.36;36.76;100347.97;5071314;28;20098;-69
2022/03/14 01:49:13;;;;;;;23.77;9.30;;;;;;;3.27;36.83;100352.66;5071075;28;20023;-68
2022/03/14 01:51:40;;;;;;;;;;;;;;;3.13;37.62;100356.56;5070995;28;20044;-69
2022/03/14 01:54:07;;;;;;;22.95;9.45;;;;;;;2.98;37.97;100364.88;5070962;28;19912;-68
2022/03/14 01:56:34;;;;;;;24.35;9.63;;;;;;;2.88;38.42;100361.75;5070624;28;20037;-68
2022/03/14 01:59:00;;;;;;;24.38;8.70;;;;;;;2.79;39.11;100367.25;5068882;28;20036;-68
2022/03/14 02:01:25;;;;;;;21.52;9.30;;;;;;;2.73;39.36;100369.19;5070310;28;20021;-68
2022/03/14 02:03:51;;;;;;;23.50;9.48;;;;;;;2.64;39.13;100368.59;5070899;28;20081;-68
2022/03/14 02:06:18;;;;;;;23.10;9.02;;;;;;;2.58;39.14;100367.94;5069442;28;20052;-68
2022/03/14 02:08:43;;;;;;;29.00;10.63;;;;;;;2.55;39.56;100368.03;5070499;28;20430;-68
2022/03/14 02:11:08;;;;;;;24.95;9.98;;;;;;;2.61;38.64;100373.88;5070807;28;20044;-68
2022/03/14 02:13:34;;;;;;;26.15;9.70;;;;;;;2.61;38.98;100373.88;5070213;28;20592;-66
2022/03/14 02:15:59;;;;;;;26.83;10.52;;;;;;;2.61;39.02;100368.69;5070934;28;20016;-66
2022/03/14 02:18:25;;;;;;;27.23;10.30;;;;;;;2.61;38.51;100363.53;5070489;28;20036;-69
2022/03/14 02:20:51;;;;;;;26.02;10.48;;;;;;;2.60;38.71;100368.75;5070387;28;20036;-66
2022/03/14 02:23:16;;;;;;;25.50;10.45;;;;;;;2.54;38.43;100377.56;5069946;28;20199;-67
2022/03/14 02:25:53;;;;;;;25.58;10.60;;;;;;;2.47;39.42;100372.63;5070243;28;20612;-69
2022/03/14 02:28:20;;;;;;;25.48;8.95;;;;;;;2.43;38.87;100375.31;5069576;28;20676;-66
2022/03/14 02:30:46;;;;;;;26.65;9.48;;;;;;;2.42;39.88;100376.22;5070472;28;20390;-66
2022/03/14 02:33:11;;;;;;;25.90;10.23;;;;;;;2.37;39.17;100380.72;5064313;28;20045;-66
2022/03/14 02:35:38;;;;;;;33.85;12.45;;;;;;;2.35;38.99;100382.47;5069914;28;20040;-67
2022/03/14 02:38:03;;;;;;;25.75;10.07;;;;;;;2.39;38.82;100373.72;5070173;28;20601;-68
2022/03/14 02:40:28;;;;;;;26.48;10.27;;;;;;;2.42;38.62;100375.38;5069796;28;20115;-67
2022/03/14 02:42:54;;;;;;;21.63;9.23;;;;;;;2.47;38.81;100378.66;5070577;28;20043;-68
2022/03/14 02:45:19;;;;;;;28.98;10.30;;;;;;;2.48;38.82;100376.91;5069530;28;20044;-67
2022/03/14 02:47:45;;;;;;;30.52;10.60;;;;;;;2.45;38.77;100389.94;5070019;28;20410;-65
2022/03/14 02:50:10;;;;;;;35.90;10.80;;;;;;;2.42;39.58;100390.91;5069606;28;20037;-66
2022/03/14 02:52:35;;;;;;;26.75;10.48;;;;;;;2.41;39.08;100391.78;5069912;28;20486;-68
2022/03/14 02:55:01;;;;;;;27.67;10.40;;;;;;;2.40;38.68;100397.84;5070206;28;20057;-67
2022/03/14 02:57:28;;;;;;;31.08;9.95;;;;;;;2.40;38.84;100400.44;5069291;28;20025;-67
2022/03/14 02:59:57;;;;;;;23.45;10.30;;;;;;;2.37;39.04;100403.13;5067523;28;20227;-68
2022/03/14 03:02:26;;;;;;;28.33;10.25;;;;;;;2.35;38.81;100404.94;5085969;22;20048;-88
2022/03/14 03:04:52;;;;;;;25.98;9.85;;;;;;;2.37;38.82;100405.72;5073938;28;20033;-88
2022/03/14 03:07:36;;;;;;;26.20;9.45;;;;;;;2.32;39.12;100410.19;5075863;28;20025;-88
2022/03/14 03:10:03;;;;;;;21.70;9.60;;;;;;;2.26;39.41;100418.13;5076097;28;20392;-87
2022/03/14 03:12:28;;;;;;;23.85;9.25;;;;;;;2.20;39.69;100418.34;5074769;28;20445;-88
2022/03/14 03:14:55;;;;;;;21.73;9.93;;;;;;;2.09;39.71;100421.25;5073124;28;20032;-88
2022/03/14 03:17:21;;;;;;;29.33;10.93;;;;;;;2.01;39.64;100424.06;5082671;28;20048;-87
2022/03/14 03:19:47;;;;;;;29.58;10.05;;;;;;;1.94;39.97;100422.53;5085753;28;20028;-88
2022/03/14 03:22:15;;;;;;;24.85;9.45;;;;;;;1.87;39.93;100424.44;5090253;28;20054;-86
2022/03/14 03:24:41;;;;;;;27.17;10.18;;;;;;;1.82;40.80;100421.16;5088040;28;20037;-88
2022/03/14 03:27:06;;;;;;;31.73;11.68;;;;;;;1.81;41.41;100421.19;5080454;28;20127;-87
2022/03/14 03:29:32;;;;;;;38.10;13.40;;;;;;;1.82;41.49;100423.75;5073644;28;20048;-87
2022/03/14 03:31:57;;;;;;;46.65;13.73;;;;;;;1.78;41.86;100429.91;5074994;28;20032;-88
2022/03/14 03:34:23;;;;;;;35.80;13.48;;;;;;;1.70;42.18;100430.09;5075442;28;20113;-88
2022/03/14 03:36:49;;;;;;;31.20;13.30;;;;;;;1.63;42.03;100430.31;5075445;28;20021;-87
2022/03/14 03:39:14;;;;;;;36.80;14.25;;;;;;;1.56;42.80;100439.13;5074870;28;20043;-87
2022/03/14 03:41:40;;;;;;;34.85;13.63;;;;;;;1.49;42.56;100435.03;5076446;28;20090;-85
2022/03/14 03:44:07;;;;;;;41.10;13.00;;;;;;;1.47;42.68;100435.06;5078459;28;20437;-86
2022/03/14 03:46:34;;;;;;;29.15;11.13;;;;;;;1.43;42.96;100433.44;5073067;28;20020;-86
2022/03/14 03:48:59;;;;;;;39.13;13.75;;;;;;;1.40;43.74;100436.94;5066174;28;20019;-87
2022/03/14 03:51:24;;;;;;;39.63;12.45;;;;;;;1.37;44.00;100441.34;5052070;28;20128;-86
2022/03/14 03:53:50;;;;;;;40.80;13.55;;;;;;;1.33;44.40;100450.91;5053397;28;20060;-87
2022/03/14 03:56:16;;;;;;;38.05;12.57;;;;;;;1.28;45.04;100452.78;5041906;28;20037;-87
2022/03/14 03:58:42;;;;;;;36.50;11.80;;;;;;;1.23;45.57;100448.66;5052135;28;20096;-86
2022/03/14 04:01:08;;;;;;;35.67;12.88;;;;;;;1.17;45.36;100445.31;5053017;28;20029;-88
2022/03/14 04:03:35;;;;;;;26.80;10.68;;;;;;;1.14;45.67;100452.28;5053825;28;20071;-87
2022/03/14 04:06:01;;;;;;;27.60;10.27;;;;;;;1.10;45.64;100453.25;5053541;28;20032;-87
2022/03/14 04:08:30;;;;;;;26.85;11.23;;;;;;;1.14;45.39;100450.56;5050096;28;20476;-87
2022/03/14 04:10:58;;;;;;;28.23;9.75;;;;;;;1.14;45.05;100452.28;5049730;28;20040;-87
2022/03/14 04:13:29;;;;;;;34.50;10.65;;;;;;;1.16;45.43;100460.84;5054027;28;20021;-87
2022/03/14 04:15:57;;;;;;;26.52;10.50;;;;;;;1.14;45.25;100458.31;5064279;28;20455;-86
2022/03/14 04:18:24;;;;;;;27.83;10.90;;;;;;;1.14;45.30;100465.19;5050828;28;20033;-88
2022/03/14 04:20:51;;;;;;;49.92;18.88;;;;;;;1.13;45.64;100471.25;5042315;28;20943;-88
2022/03/14 04:23:19;;;;;;;34.03;13.73;;;;;;;1.16;45.85;100484.94;5034299;28;20038;-86
2022/03/14 04:25:45;;;;;;;32.87;11.53;;;;;;;1.21;46.01;100472.75;5042287;28;20037;-88
2022/03/14 04:28:12;;;;;;;37.40;11.85;;;;;;;1.24;45.62;100478.75;5064870;28;20279;-87
2022/03/14 04:30:39;;;;;;;27.85;10.70;;;;;;;1.18;45.89;100475.41;5062133;28;20037;-87
2022/03/14 04:33:07;;;;;;;27.80;10.10;;;;;;;1.10;46.28;100476.50;5057924;28;20032;-87
2022/03/14 04:35:32;;;;;;;31.42;11.13;;;;;;;1.02;46.63;100468.09;5068506;28;20026;-87
2022/03/14 04:37:58;;;;;;;33.17;11.35;;;;;;;0.95;46.64;100470.81;5055602;28;20087;-87
2022/03/14 04:40:23;;;;;;;23.98;11.05;;;;;;;0.90;46.67;100472.69;5033211;28;20048;-88
2022/03/14 04:42:52;;;;;;;32.78;13.13;;;;;;;0.90;46.54;100464.09;5052639;28;20120;-88
2022/03/14 04:45:20;;;;;;;35.63;12.90;;;;;;;0.96;46.90;100466.50;5034738;28;20044;-87
2022/03/14 04:47:45;;;;;;;34.60;11.73;;;;;;;1.00;47.08;100464.69;5054679;28;20120;-88
2022/03/14 04:50:11;;;;;;;26.55;11.52;;;;;;;1.07;46.97;100461.91;5054479;28;20512;-88
2022/03/14 04:52:36;;;;;;;43.13;12.15;;;;;;;1.11;46.44;100467.84;5055485;28;20029;-87
2022/03/14 04:55:04;;;;;;;33.10;10.95;;;;;;;1.08;47.26;100466.22;5062306;28;20123;-85
2022/03/14 04:57:29;;;;;;;28.98;11.38;;;;;;;1.11;46.92;100470.44;5056467;28;20029;-87
2022/03/14 04:59:56;;;;;;;29.92;11.80;;;;;;;1.03;46.93;100473.22;5053856;28;20041;-87
2022/03/14 05:02:22;;;;;;;37.63;12.52;;;;;;;1.00;47.37;100473.28;5057539;28;20041;-89
2022/03/14 05:04:52;;;;;;;30.90;10.07;;;;;;;1.04;47.09;100474.06;5058473;28;20113;-88
2022/03/14 05:07:21;;;;;;;27.95;10.35;;;;;;;1.05;46.46;100478.34;5057107;28;20032;-88
2022/03/14 05:09:46;;;;;;;39.05;12.45;;;;;;;1.00;46.59;100477.59;5054602;28;20068;-86
2022/03/14 05:12:12;;;;;;;28.33;10.65;;;;;;;0.95;46.18;100485.47;5055363;28;20079;-86
2022/03/14 05:14:39;;;;;;;27.48;10.60;;;;;;;0.88;46.52;100495.09;5050242;28;20049;-85
2022/03/14 05:17:05;;;;;;;28.17;10.82;;;;;;;0.84;46.68;100497.78;5049956;28;20033;-86
2022/03/14 05:19:30;;;;;;;34.08;12.45;;;;;;;0.87;47.00;100498.56;5053126;28;20029;-86
2022/03/14 05:21:57;;;;;;;31.83;11.80;;;;;;;0.85;46.93;100502.06;5054163;28;20120;-87
2022/03/14 05:24:23;;;;;;;31.80;13.20;;;;;;;0.80;47.24;100498.75;5052548;28;20037;-87
2022/03/14 05:26:53;;;;;;;37.88;11.23;;;;;;;0.85;47.20;100504.63;5045325;28;20105;-87
2022/03/14 05:29:19;;;;;;;30.95;10.93;;;;;;;0.83;47.53;100507.25;5061512;28;20053;-86
2022/03/14 05:31:45;;;;;;;36.00;11.82;;;;;;;0.79;47.94;100507.38;5067752;28;20032;-87
2022/03/14 05:34:10;;;;;;;34.50;12.10;;;;;;;0.76;48.05;100525.50;5053774;28;20026;-87
2022/03/14 05:36:37;;;;;;;21.02;10.93;;;;;;;0.77;48.00;100522.03;5048915;28;20044;-86
2022/03/14 05:39:05;;;;;;;40.88;11.75;;;;;;;0.75;48.55;100523.81;5053289;28;20052;-84
2022/03/14 05:41:31;;;;;;;31.20;11.98;;;;;;;0.87;54.66;100518.38;5067168;28;20025;-85
2022/03/14 05:43:56;;;;;;;30.55;11.45;;;;;;;1.17;52.25;100517.63;5072779;28;20021;-87
2022/03/14 05:46:22;;;;;;;34.08;11.32;;;;;;;1.23;50.40;100516.63;5059758;28;20123;-87
2022/03/14 05:48:48;;;;;;;36.25;12.02;;;;;;;1.26;48.92;100523.44;5062768;28;20031;-86
2022/03/14 05:51:13;;;;;;;35.88;11.57;;;;;;;1.28;48.71;100519.94;5047928;28;20087;-87
2022/03/14 05:53:39;;;;;;;31.90;10.73;;;;;;;1.26;48.06;100524.31;5053103;28;20527;-88
2022/03/14 05:56:07;;;;;;;35.00;12.80;;;;;;;1.22;48.25;100530.41;5061266;28;20037;-86
2022/03/14 05:58:33;;;;;;;28.98;12.20;;;;;;;1.16;48.26;100535.75;5056918;28;20037;-86
2022/03/14 06:00:58;;;;;;;37.10;11.73;;;;;;;1.15;48.49;100544.38;5060614;28;20024;-87
2022/03/14 06:03:24;;;;;;;35.85;13.30;;;;;;;1.13;49.18;100548.72;5045505;28;20041;-88
2022/03/14 06:05:50;;;;;;;45.30;12.93;;;;;;;1.15;48.62;100553.00;5052098;28;20029;-87
2022/03/14 06:08:21;;;;;;;32.85;11.65;;;;;;;1.17;49.07;100558.09;5052060;28;20036;-88
2022/03/14 06:10:47;;;;;;;35.45;12.98;;;;;;;1.18;48.56;100563.22;5058331;28;20519;-87
2022/03/14 06:13:14;;;;;;;37.92;13.13;;;;;;;1.19;48.70;100557.19;5056874;28;20033;-87
2022/03/14 06:15:40;;;;;;;37.28;12.82;;;;;;;1.19;48.21;100559.78;5061466;28;20455;-87
2022/03/14 06:18:06;;;;;;;35.90;12.68;;;;;;;1.27;48.49;100566.50;5056943;28;20041;-87
2022/03/14 06:20:36;;;;;;;45.30;12.65;;;;;;;1.28;48.20;100571.59;5058624;28;20037;-85
2022/03/14 06:23:03;;;;;;;31.90;12.05;;;;;;;1.36;47.92;100572.25;5072761;28;20116;-87
2022/03/14 06:25:28;;;;;;;49.28;12.68;;;;;;;1.47;47.45;100572.00;5070513;28;20051;-86
2022/03/14 06:27:54;;;;;;;37.10;11.18;;;;;;;1.55;47.16;100579.56;5052222;28;20033;-88
2022/03/14 06:30:22;;;;;;;28.13;11.32;;;;;;;1.66;47.08;100585.31;5047636;28;20063;-88
2022/03/14 06:32:49;;;;;;;35.95;12.68;;;;;;;1.76;46.94;100578.16;5018280;28;20333;-88
2022/03/14 06:35:19;;;;;;;35.30;12.15;;;;;;;1.81;46.84;100582.31;5058997;28;20160;-88
2022/03/14 06:37:45;;;;;;;48.08;13.35;;;;;;;1.91;46.87;100588.94;5058934;28;20033;-87
2022/03/14 06:40:17;;;;;;;38.88;12.75;;;;;;;1.94;47.08;100588.88;5053026;28;20037;-86
2022/03/14 06:42:49;;;;;;;48.05;15.80;;;;;;;2.02;46.46;100587.81;5018262;28;20053;-87
2022/03/14 06:45:20;;;;;;;35.15;12.85;;;;;;;2.11;46.89;100600.50;5050121;28;20064;-88
2022/03/14 06:47:46;;;;;;;42.95;12.20;;;;;;;2.19;46.32;100593.41;5057072;28;20060;-88
2022/03/14 06:50:12;;;;;;;36.40;12.57;;;;;;;2.23;46.23;100596.75;5056754;28;20041;-88
2022/03/14 06:55:38;;;;;;;39.00;13.35;;;;;;;2.46;45.80;100607.28;5048597;28;20043;-87
2022/03/14 06:58:24;;;;;;;39.97;13.70;;;;;;;2.55;45.81;100606.16;5051167;28;20021;-86
2022/03/14 07:00:50;;;;;;;31.23;12.00;;;;;;;2.65;45.64;100610.19;5050044;28;20135;-88
2022/03/14 07:03:16;;;;;;;60.00;14.48;;;;;;;2.76;45.37;100608.13;5059007;28;20041;-87
2022/03/14 07:05:42;;;;;;;74.18;17.33;;;;;;;2.89;45.84;100608.59;5060733;28;20033;-87
2022/03/14 07:08:16;;;;;;;73.13;17.70;;;;;;;3.00;45.22;100616.06;5056110;28;20029;-89
2022/03/14 07:10:41;;;;;;;50.78;16.83;;;;;;;3.17;46.04;100621.59;5061605;28;20033;-87
2022/03/14 07:13:07;;;;;;;46.42;14.68;;;;;;;3.27;44.85;100624.75;5051545;28;20029;-89
2022/03/14 07:15:33;;;;;;;46.50;14.48;;;;;;;3.33;44.57;100627.97;5035666;28;20052;-87
2022/03/14 07:18:04;;;;;;;62.53;16.85;;;;;;;3.41;44.48;100630.31;5036102;28;20084;-87
2022/03/14 07:20:36;;;;;;;39.35;14.27;;;;;;;3.54;44.28;100631.63;5038166;28;20041;-87
2022/03/14 07:23:06;;;;;;;48.88;13.52;;;;;;;3.64;43.86;100635.63;5035350;28;20045;-88
2022/03/14 07:25:34;;;;;;;35.80;14.35;;;;;;;3.80;42.80;100640.31;5038044;28;20125;-88
2022/03/14 07:28:21;;;;;;;39.08;15.18;;;;;;;3.91;42.87;100639.94;5051843;28;20380;-81
2022/03/14 07:30:51;;;;;;;39.83;12.85;;;;;;;4.03;41.88;100648.16;5056747;28;20049;-88
2022/03/14 07:33:35;;;;;;;38.22;12.70;;;;;;;4.18;41.30;100643.34;5040140;28;20445;-88
2022/03/14 07:36:02;;;;;;;39.03;13.85;;;;;;;4.33;40.90;100653.16;5034146;28;20116;-86
2022/03/14 07:38:34;;;;;;;33.08;12.70;;;;;;;4.44;40.84;100651.03;5061737;28;20029;-88
2022/03/14 07:41:02;;;;;;;35.50;12.68;;;;;;;4.58;40.66;100654.00;5056442;28;20444;-87
2022/03/14 07:43:28;;;;;;;35.90;13.43;;;;;;;4.75;40.30;100653.38;5057420;28;20348;-86
2022/03/14 07:45:53;;;;;;;41.10;12.85;;;;;;;4.87;40.02;100659.03;5062680;28;20025;-87
2022/03/14 07:48:19;;;;;;;44.05;13.02;;;;;;;5.03;39.53;100649.75;5065625;28;20092;-88
2022/03/14 07:50:47;;;;;;;39.65;12.38;;;;;;;5.20;39.37;100652.53;5058207;28;20036;-86
2022/03/14 07:53:14;;;;;;;33.40;11.57;;;;;;;5.37;38.49;100651.03;5042056;28;20112;-88
2022/03/14 07:55:43;;;;;;;40.35;12.85;;;;;;;5.54;38.28;100662.47;5063537;28;20056;-87
2022/03/14 07:58:21;;;;;;;;;;;;;;;;;;;;;
2022/03/14 08:00:50;;;;;;;30.38;12.38;;;;;;;5.99;37.13;100664.13;5044448;28;20637;-87
2022/03/14 08:03:19;;;;;;;37.35;14.23;;;;;;;6.24;36.72;100669.13;5063189;28;20096;-89
2022/03/14 08:06:00;;;;;;;32.95;11.48;;;;;;;6.53;34.96;100661.81;5069476;28;20056;-91
2022/03/14 08:08:29;;;;;;;43.28;11.75;;;;;;;6.79;34.12;100660.66;5057099;28;20096;-90
2022/03/14 08:11:12;;;;;;;;;;;;;;;;;;;;;
2022/03/14 08:13:40;;;;;;;31.90;12.02;;;;;;;7.08;33.19;100669.72;5071479;28;20072;-88
2022/03/14 08:16:06;;;;;;;33.85;11.27;;;;;;;7.18;32.76;100670.16;5040010;28;20096;-88
2022/03/14 08:18:32;;;;;;;36.13;12.88;;;;;;;7.20;32.97;100669.19;5071295;28;20033;-87
2022/03/14 08:21:00;;;;;;;43.58;14.10;;;;;;;7.27;33.00;100667.97;5071862;28;20044;-89
2022/03/14 08:23:30;;;;;;;33.67;12.35;;;;;;;7.37;32.96;100672.75;5059064;28;20071;-88
2022/03/14 08:25:56;;;;;;;35.67;12.65;;;;;;;7.45;33.47;100681.91;5071671;28;20037;-88
2022/03/14 08:28:22;;;;;;;49.33;14.73;;;;;;;7.55;32.24;100676.25;5068051;28;20106;-89
2022/03/14 08:30:48;;;;;;;44.97;12.27;;;;;;;7.63;32.70;100679.31;5049400;28;20021;-88
2022/03/14 08:33:14;;;;;;;48.33;13.77;;;;;;;7.69;32.03;100684.25;5068537;28;20043;-87
2022/03/14 08:35:39;;;;;;;42.00;12.25;;;;;;;7.79;32.52;100687.25;5067703;28;20094;-87
2022/03/14 08:38:06;;;;;;;51.53;14.23;;;;;;;7.87;32.36;100680.75;5063037;28;20085;-89
2022/03/14 08:40:34;;;;;;;36.72;13.52;;;;;;;7.88;31.71;100690.25;5049264;28;20164;-90
2022/03/14 08:43:00;;;;;;;48.88;14.00;;;;;;;7.85;31.96;100689.56;5056000;28;20041;-85
2022/03/14 08:45:30;;;;;;;79.00;15.75;;;;;;;7.86;31.81;100705.16;5058080;28;20089;-87
2022/03/14 08:47:59;;;;;;;46.10;13.57;;;;;;;7.83;31.62;100699.25;5060991;28;20029;-88
2022/03/14 08:50:26;;;;;;;54.40;13.98;;;;;;;7.91;31.63;100692.72;5053905;28;20057;-86
2022/03/14 08:52:52;;;;;;;33.10;13.52;;;;;;;7.98;31.96;100695.88;5064836;28;20040;-87
2022/03/14 08:55:18;;;;;;;34.08;12.85;;;;;;;8.03;32.03;100704.31;5068537;28;20048;-88
2022/03/14 08:57:44;;;;;;;44.25;15.05;;;;;;;8.09;32.22;100704.03;5061051;28;20116;-90
2022/03/14 09:00:19;;;;;;;57.20;14.98;;;;;;;8.17;31.90;100703.63;5033753;28;20117;-87
2022/03/14 09:02:50;;;;;;;40.35;13.75;;;;;;;8.23;32.15;100708.53;5052014;28;20093;-88
2022/03/14 09:05:42;;;;;;;40.85;13.55;;;;;;;8.45;32.08;100708.31;5043123;28;20044;-90
2022/03/14 09:08:10;;;;;;;41.42;12.85;;;;;;;8.50;32.32;100715.94;5053787;28;20092;-88
2022/03/14 09:10:41;;;;;;;37.70;14.05;;;;;;;8.62;32.01;100723.16;5040349;28;20445;-90
2022/03/14 09:13:10;;;;;;;37.80;12.88;;;;;;;8.72;32.23;100727.81;5051282;28;20087;-89
2022/03/14 09:15:40;;;;;;;38.70;12.85;;;;;;;8.82;31.76;100728.16;5053363;28;20388;-91
2022/03/14 09:18:08;;;;;;;25.73;12.02;;;;;;;8.90;31.91;100740.88;5047760;28;20036;-86
2022/03/14 09:20:40;;;;;;;38.17;14.00;;;;;;;9.03;31.79;100738.44;5059257;28;20193;-89
2022/03/14 09:23:06;;;;;;;48.30;14.95;;;;;;;9.06;31.57;100733.06;5041896;28;20056;-88
2022/03/14 09:25:35;;;;;;;45.50;12.93;;;;;;;9.07;31.17;100737.34;5056808;28;20031;-89
2022/03/14 09:28:03;;;;;;;36.58;13.95;;;;;;;9.04;31.93;100737.50;5056312;28;20021;-87
2022/03/14 09:30:32;;;;;;;51.58;14.95;;;;;;;9.15;31.98;100740.38;5058014;28;20047;-89
2022/03/14 09:32:58;;;;;;;44.17;14.30;;;;;;;9.21;31.34;100735.69;5054746;28;20065;-91
2022/03/14 09:35:24;;;;;;;47.53;13.50;;;;;;;9.23;31.48;100735.59;5056287;28;20045;-89
2022/03/14 09:37:51;;;;;;;38.83;14.43;;;;;;;9.23;31.54;100740.81;5037971;28;20049;-89
2022/03/14 09:40:19;;;;;;;48.80;15.27;;;;;;;9.31;31.89;100753.50;5056502;28;20040;-88
2022/03/14 09:42:51;;;;;;;52.05;15.52;;;;;;;9.43;31.67;100758.91;5054839;28;20021;-89
2022/03/14 09:45:20;;;;;;;40.33;13.95;;;;;;;9.49;31.37;100768.19;5057715;28;20033;-90
2022/03/14 09:47:49;;;;;;;;;;;;;;;9.58;31.51;100761.63;5058998;28;20678;-89
2022/03/14 09:50:23;;;;;;;54.97;15.48;;;;;;;9.63;31.48;100754.34;5059281;28;19920;-90
2022/03/14 09:52:53;;;;;;;45.17;15.57;;;;;;;9.73;31.78;100757.31;5055888;28;20120;-88
2022/03/14 09:55:19;;;;;;;44.97;15.25;;;;;;;9.74;31.42;100757.22;5056250;28;20112;-90
2022/03/14 09:57:46;;;;;;;44.38;16.02;;;;;;;9.88;31.77;100756.44;5055589;28;20362;-90
2022/03/14 10:00:15;;;;;;;40.75;15.45;;;;;;;9.91;31.20;100759.75;5058245;28;20075;-88
2022/03/14 10:02:44;;;;;;;43.63;15.52;;;;;;;10.01;31.31;100756.56;5064393;28;20051;-89
2022/03/14 10:05:19;;;;;;;41.20;15.05;;;;;;;10.20;31.31;100765.09;5062634;28;20059;-89
2022/03/14 10:07:45;;;;;;;32.58;14.35;;;;;;;10.17;31.84;100773.97;5058091;28;20032;-89
2022/03/14 10:10:18;;;;;;;50.10;15.15;;;;;;;10.34;31.60;100774.78;5058651;28;20052;-88
2022/03/14 10:13:03;;;;;;;33.80;15.02;;;;;;;10.48;31.15;100774.00;5058695;28;20101;-90
2022/03/14 10:15:31;;;;;;;39.58;15.85;;;;;;;10.63;31.53;100778.34;5053595;28;20041;-89
2022/03/14 10:17:59;;;;;;;57.28;15.85;;;;;;;10.75;31.12;100777.59;5041540;28;20063;-88
2022/03/14 10:20:32;;;;;;;54.38;15.88;;;;;;;10.89;30.49;100785.47;5066406;28;20043;-88
2022/03/14 10:23:01;;;;;;;92.22;19.52;;;;;;;10.87;30.65;100783.91;5053717;28;20049;-89
2022/03/14 10:25:31;;;;;;;34.90;13.35;;;;;;;10.89;31.13;100790.72;5053782;28;20033;-88
2022/03/14 10:28:07;;;;;;;49.35;15.82;;;;;;;10.87;31.10;100790.00;5056188;28;20158;-89
2022/03/14 10:30:35;;;;;;;49.72;15.85;;;;;;;11.04;31.22;100807.34;5042568;28;20147;-88
2022/03/14 10:33:12;;;;;;;43.92;17.08;;;;;;;11.18;31.44;100803.03;5047901;28;20081;-87
2022/03/14 10:35:43;;;;;;;36.08;14.65;;;;;;;11.12;31.58;100809.50;5054739;28;20033;-89
2022/03/14 10:38:27;;;;;;;32.63;15.18;;;;;;;11.13;31.57;100816.44;5053565;28;20116;-90
2022/03/14 10:40:57;;;;;;;37.28;16.63;;;;;;;11.07;31.88;100822.06;5022384;28;20030;-90
2022/03/14 10:43:30;;;;;;;36.72;16.30;;;;;;;11.07;32.38;100828.16;5043245;28;20032;-90
2022/03/14 10:45:59;;;;;;;47.55;16.17;;;;;;;10.87;32.56;100839.00;5059907;28;20410;-88
2022/03/14 10:48:53;;;;;;;39.33;16.50;;;;;;;10.82;33.19;100827.91;5062854;28;20440;-88
2022/03/14 10:51:23;;;;;;;40.53;15.35;;;;;;;10.88;33.51;100833.66;5046806;28;20047;-89
2022/03/14 10:53:51;;;;;;;43.92;16.00;;;;;;;10.84;34.12;100836.56;5054578;28;20033;-89
2022/03/14 10:56:27;;;;;;;39.45;15.07;;;;;;;10.79;34.57;100828.97;5054146;28;20569;-88
2022/03/14 10:58:56;;;;;;;51.17;17.05;;;;;;;10.86;35.04;100837.28;5060334;28;20164;-89
2022/03/14 11:01:24;;;;;;;;;;;;;;;10.81;35.58;100836.75;5055847;28;20028;-88
2022/03/14 11:03:50;;;;;;;40.88;14.95;;;;;;;10.89;36.26;100830.09;5055056;28;19940;-88
2022/03/14 11:06:18;;;;;;;33.90;15.35;;;;;;;10.98;37.83;100838.38;5056038;28;20048;-89
2022/03/14 11:08:51;;;;;;;36.05;15.15;;;;;;;10.96;38.85;100841.06;5055404;28;20113;-87
2022/03/14 11:11:21;;;;;;;40.45;15.98;;;;;;;11.02;38.74;100845.97;5052096;28;20098;-88
2022/03/14 11:13:51;;;;;;;43.78;15.13;;;;;;;11.02;39.47;100850.38;5055999;28;20507;-88
2022/03/14 11:16:34;;;;;;;37.17;15.88;;;;;;;11.00;39.80;100853.06;5065579;28;20025;-86
2022/03/14 11:19:01;;;;;;;46.63;16.60;;;;;;;11.11;39.98;100852.44;5068819;28;20025;-87
2022/03/14 11:21:28;;;;;;;35.65;14.55;;;;;;;11.01;40.04;100851.28;5064447;28;20052;-88
2022/03/14 11:23:58;;;;;;;41.67;15.95;;;;;;;10.94;40.20;100845.59;5063914;28;20043;-89
2022/03/14 11:26:25;;;;;;;40.85;16.05;;;;;;;11.07;39.98;100846.53;5066478;28;20061;-88
2022/03/14 11:28:52;;;;;;;36.85;17.20;;;;;;;11.13;40.14;100850.56;5064640;28;20029;-90